Time;durP1;ratioP1;P1;durP2;ratioP2;P2;SDS_P1;SDS_P2;PMS_P1;PMS_P2;Temp;Humidity;BMP_temperature;BMP_pressure;BME280_temperature;BME280_humidity;BME280_pressure;Samples;Min_cycle;Max_cycle;Signal;HPM_P1;HPM_P2
2021/11/28 00:01:35;;;;;;;11.00;7.70;;;0.80;99.90;;;;;;1965750;72;21201;-81
2021/11/28 00:04:01;;;;;;;14.18;8.25;;;0.80;99.90;;;;;;1974224;72;21059;-79
2021/11/28 00:06:29;;;;;;;14.38;8.60;;;0.70;99.90;;;;;;1971001;72;21144;-81
2021/11/28 00:11:36;;;;;;;11.48;8.53;;;0.80;99.90;;;;;;1931853;72;21149;-80
2021/11/28 00:16:30;;;;;;;14.35;8.25;;;0.90;99.90;;;;;;1976660;72;21088;-81
2021/11/28 00:18:56;;;;;;;12.07;7.60;;;0.90;99.90;;;;;;1974215;72;21080;-81
2021/11/28 00:21:22;;;;;;;10.15;7.62;;;0.80;99.90;;;;;;1967979;72;21086;-80
2021/11/28 00:23:48;;;;;;;12.88;8.28;;;0.80;99.90;;;;;;1968155;72;21128;-81
2021/11/28 00:26:14;;;;;;;10.58;7.25;;;0.90;99.90;;;;;;1971406;72;21066;-81
2021/11/28 00:28:40;;;;;;;11.28;7.80;;;0.90;99.90;;;;;;1971327;72;21028;-79
2021/11/28 00:31:06;;;;;;;10.48;7.83;;;0.80;99.90;;;;;;1974242;72;21182;-81
2021/11/28 00:33:33;;;;;;;17.02;7.65;;;0.80;99.90;;;;;;1974214;72;21168;-82
2021/11/28 00:35:59;;;;;;;12.53;7.80;;;0.80;99.90;;;;;;1973289;72;21180;-81
2021/11/28 00:38:25;;;;;;;13.25;7.90;;;0.80;99.90;;;;;;1966967;72;21132;-80
2021/11/28 00:40:51;;;;;;;11.10;7.30;;;0.80;99.90;;;;;;1970995;72;21157;-80
2021/11/28 00:43:18;;;;;;;11.80;7.65;;;0.80;99.90;;;;;;1968330;72;21462;-80
2021/11/28 00:45:45;;;;;;;9.30;7.35;;;0.80;99.90;;;;;;1989022;72;21144;-80
2021/11/28 00:48:11;;;;;;;12.53;7.15;;;0.80;99.90;;;;;;1974329;73;21128;-79
2021/11/28 00:50:48;;;;;;;11.18;7.40;;;0.80;99.90;;;;;;1967115;72;21050;-80
2021/11/28 00:53:14;;;;;;;11.38;7.70;;;0.80;99.90;;;;;;1986632;72;21478;-82
2021/11/28 00:55:40;;;;;;;10.50;7.67;;;0.80;99.90;;;;;;1975535;72;21584;-80
2021/11/28 00:58:06;;;;;;;11.85;7.65;;;0.80;99.90;;;;;;1971901;72;21059;-82
2021/11/28 01:00:33;;;;;;;14.18;8.30;;;0.80;99.90;;;;;;1967263;72;21055;-82
2021/11/28 01:02:59;;;;;;;15.72;8.80;;;0.80;99.90;;;;;;1981098;72;21325;-80
2021/11/28 01:05:25;;;;;;;11.53;7.25;;;0.70;99.90;;;;;;1987017;72;21120;-80
2021/11/28 01:07:51;;;;;;;15.30;8.43;;;0.80;99.90;;;;;;1972583;72;21101;-81
2021/11/28 01:10:17;;;;;;;11.18;8.18;;;0.80;99.90;;;;;;1970891;72;21060;-80
2021/11/28 01:12:43;;;;;;;11.88;8.60;;;0.70;99.90;;;;;;1973788;72;21055;-82
2021/11/28 01:15:09;;;;;;;11.43;8.25;;;0.80;99.90;;;;;;1968257;72;21070;-81
2021/11/28 01:17:38;;;;;;;13.13;8.03;;;0.80;99.90;;;;;;1984361;72;21047;-80
2021/11/28 01:20:03;;;;;;;11.83;7.92;;;0.80;99.90;;;;;;1964518;72;21498;-82
2021/11/28 01:22:30;;;;;;;14.83;8.48;;;0.80;99.90;;;;;;1967439;72;21533;-80
2021/11/28 01:24:56;;;;;;;13.53;8.00;;;0.80;99.90;;;;;;1973575;72;21476;-82
2021/11/28 01:27:22;;;;;;;13.13;8.65;;;0.90;99.90;;;;;;1970518;72;21494;-82
2021/11/28 01:29:48;;;;;;;14.03;7.37;;;0.90;99.90;;;;;;1970593;72;21144;-82
2021/11/28 01:32:14;;;;;;;12.13;7.78;;;0.90;99.90;;;;;;1973247;72;21148;-81
2021/11/28 01:34:40;;;;;;;12.47;7.83;;;0.90;99.90;;;;;;1980522;72;21047;-80
2021/11/28 01:37:06;;;;;;;16.00;9.03;;;0.90;99.90;;;;;;1970656;72;21149;-80
2021/11/28 01:39:32;;;;;;;8.60;6.62;;;0.90;99.90;;;;;;1970090;72;21065;-80
2021/11/28 01:41:59;;;;;;;10.70;8.00;;;0.90;99.90;;;;;;1970198;72;21086;-80
2021/11/28 01:44:25;;;;;;;11.03;7.78;;;1.00;99.90;;;;;;1974941;72;21059;-80
2021/11/28 01:46:51;;;;;;;8.10;6.62;;;1.00;99.90;;;;;;1972859;72;21090;-82
2021/11/28 01:49:20;;;;;;;14.80;7.70;;;1.00;99.90;;;;;;1982987;72;21570;-82
2021/11/28 01:51:45;;;;;;;10.40;7.05;;;1.10;99.90;;;;;;1973580;72;21084;-81
2021/11/28 01:54:15;;;;;;;9.03;6.67;;;1.10;99.90;;;;;;1971571;72;21147;-80
2021/11/28 01:56:39;;;;;;;10.68;6.72;;;1.10;99.90;;;;;;1982836;72;21058;-81
2021/11/28 01:59:06;;;;;;;9.38;6.37;;;1.10;99.90;;;;;;1966807;72;21157;-80
2021/11/28 02:01:33;;;;;;;11.78;7.00;;;1.20;99.90;;;;;;1978375;72;21166;-79
2021/11/28 02:03:59;;;;;;;11.70;6.85;;;1.20;99.90;;;;;;1965840;72;21031;-80
2021/11/28 02:06:25;;;;;;;10.60;7.08;;;1.20;99.90;;;;;;1976901;72;21067;-81
2021/11/28 02:08:52;;;;;;;10.55;5.80;;;1.20;99.90;;;;;;1970422;72;21067;-80
2021/11/28 02:11:18;;;;;;;10.72;6.87;;;1.20;99.90;;;;;;1960171;72;21058;-82
2021/11/28 02:13:44;;;;;;;11.08;6.17;;;1.20;99.90;;;;;;1976458;72;21091;-80
2021/11/28 02:16:11;;;;;;;7.83;6.47;;;1.30;99.90;;;;;;1970183;72;21226;-80
2021/11/28 02:18:37;;;;;;;8.40;6.17;;;1.30;99.90;;;;;;1972631;72;21169;-81
2021/11/28 02:21:03;;;;;;;10.90;6.22;;;1.30;99.90;;;;;;1981128;72;21444;-80
2021/11/28 02:23:29;;;;;;;9.50;6.75;;;1.30;99.90;;;;;;1974089;72;21528;-81
2021/11/28 02:25:55;;;;;;;9.85;6.58;;;1.30;99.90;;;;;;1976944;72;21546;-79
2021/11/28 02:28:21;;;;;;;9.03;6.35;;;1.30;99.90;;;;;;1982250;72;21133;-79
2021/11/28 02:30:47;;;;;;;7.03;6.17;;;1.20;99.90;;;;;;1980995;72;21067;-81
2021/11/28 02:33:13;;;;;;;9.43;6.83;;;1.20;99.90;;;;;;1969348;72;21059;-80
2021/11/28 02:35:40;;;;;;;7.58;6.37;;;1.20;99.90;;;;;;1980905;72;21117;-80
2021/11/28 02:38:06;;;;;;;10.03;6.90;;;1.30;99.90;;;;;;1975612;72;21070;-81
2021/11/28 02:40:32;;;;;;;10.38;7.62;;;1.20;99.90;;;;;;1967371;72;21039;-81
2021/11/28 02:42:58;;;;;;;11.28;7.42;;;1.10;99.90;;;;;;1970000;72;21136;-79
2021/11/28 02:45:24;;;;;;;13.65;6.87;;;1.10;99.90;;;;;;1975724;72;21502;-79
2021/11/28 02:47:50;;;;;;;7.35;6.37;;;1.10;99.90;;;;;;1971566;72;21465;-81
2021/11/28 02:50:16;;;;;;;8.28;6.55;;;1.20;99.90;;;;;;1982115;72;21576;-80
2021/11/28 02:52:42;;;;;;;11.15;6.75;;;1.10;99.90;;;;;;1976819;72;21067;-81
2021/11/28 02:55:10;;;;;;;13.65;7.30;;;1.20;99.90;;;;;;1973901;73;21024;-81
2021/11/28 02:57:36;;;;;;;9.78;6.60;;;1.20;99.90;;;;;;1973831;72;21153;-80
2021/11/28 03:00:02;;;;;;;8.18;5.90;;;1.10;99.90;;;;;;1966337;72;21065;-79
2021/11/28 03:02:29;;;;;;;10.70;6.53;;;1.10;99.90;;;;;;1980153;72;21152;-81
2021/11/28 03:04:55;;;;;;;10.38;6.55;;;1.10;99.90;;;;;;1965538;72;21499;-79
2021/11/28 03:07:21;;;;;;;10.78;7.12;;;1.10;99.90;;;;;;1971912;72;21141;-79
2021/11/28 03:09:48;;;;;;;8.88;7.03;;;1.10;99.90;;;;;;1973483;72;21109;-81
2021/11/28 03:12:14;;;;;;;11.53;7.17;;;1.00;99.90;;;;;;1979325;72;21144;-81
2021/11/28 03:14:40;;;;;;;10.40;7.12;;;1.10;99.90;;;;;;1975332;72;21066;-79
2021/11/28 03:17:06;;;;;;;16.62;7.55;;;1.20;99.90;;;;;;1969507;72;21148;-80
2021/11/28 03:19:34;;;;;;;11.45;7.25;;;1.10;99.90;;;;;;1984631;72;21136;-80
2021/11/28 03:22:00;;;;;;;11.53;7.25;;;1.30;99.90;;;;;;1990853;72;21052;-80
2021/11/28 03:24:26;;;;;;;13.65;8.35;;;1.20;99.90;;;;;;1973829;72;21036;-81
2021/11/28 03:26:53;;;;;;;11.57;7.50;;;1.30;99.90;;;;;;1974018;73;21055;-80
2021/11/28 03:29:19;;;;;;;9.60;7.30;;;1.20;99.90;;;;;;1977860;72;21191;-79
2021/11/28 03:31:46;;;;;;;10.00;6.60;;;1.10;99.90;;;;;;1968209;72;21067;-80
2021/11/28 03:34:12;;;;;;;14.45;7.70;;;1.30;99.90;;;;;;1980263;72;21108;-80
2021/11/28 03:36:38;;;;;;;7.42;6.30;;;1.20;99.90;;;;;;1971496;72;21062;-79
2021/11/28 03:39:04;;;;;;;8.25;6.83;;;1.10;99.90;;;;;;1976461;72;21166;-79
2021/11/28 03:41:31;;;;;;;13.15;6.58;;;1.30;99.90;;;;;;1977090;72;21024;-79
2021/11/28 03:43:57;;;;;;;11.25;6.28;;;1.30;99.90;;;;;;1970976;72;21458;-79
2021/11/28 03:46:24;;;;;;;13.08;6.28;;;1.30;99.90;;;;;;1976636;72;21494;-80
2021/11/28 03:48:50;;;;;;;12.93;6.62;;;1.30;99.90;;;;;;1970784;72;21100;-80
2021/11/28 03:51:16;;;;;;;9.20;6.75;;;1.20;99.90;;;;;;1979949;72;21054;-80
2021/11/28 03:53:42;;;;;;;10.70;6.55;;;1.20;99.90;;;;;;1970078;72;21136;-79
2021/11/28 03:56:09;;;;;;;9.05;6.30;;;1.10;99.90;;;;;;1970747;72;21171;-79
2021/11/28 03:58:35;;;;;;;9.80;6.45;;;1.10;99.90;;;;;;1973969;73;21051;-79
2021/11/28 04:01:01;;;;;;;10.82;6.85;;;1.10;99.90;;;;;;1970693;72;21032;-79
2021/11/28 04:03:27;;;;;;;9.65;5.80;;;1.10;99.90;;;;;;1981620;72;21204;-80
2021/11/28 04:05:53;;;;;;;9.45;6.05;;;1.10;99.90;;;;;;1968549;72;21059;-82
2021/11/28 04:08:19;;;;;;;8.90;6.50;;;1.20;99.90;;;;;;1974744;72;21109;-81
2021/11/28 04:10:46;;;;;;;9.05;6.22;;;1.20;99.90;;;;;;1991167;72;21055;-79
2021/11/28 04:13:12;;;;;;;9.45;6.10;;;1.30;99.90;;;;;;1984677;72;21059;-81
2021/11/28 04:15:38;;;;;;;11.43;6.40;;;1.30;99.90;;;;;;1981649;72;21148;-79
2021/11/28 04:18:04;;;;;;;6.08;5.35;;;1.30;99.90;;;;;;1978121;72;21128;-79
2021/11/28 04:20:32;;;;;;;8.60;5.87;;;1.40;99.90;;;;;;1967051;72;21156;-79
2021/11/28 04:22:58;;;;;;;10.13;5.87;;;1.30;99.90;;;;;;1973806;72;21480;-79
2021/11/28 04:25:26;;;;;;;9.35;6.58;;;1.30;99.90;;;;;;1973959;72;21511;-80
2021/11/28 04:27:52;;;;;;;8.53;6.00;;;1.20;99.90;;;;;;1971537;72;21078;-81
2021/11/28 04:30:18;;;;;;;8.80;6.22;;;1.20;99.90;;;;;;1973288;72;21184;-81
2021/11/28 04:32:44;;;;;;;10.98;6.08;;;1.30;99.90;;;;;;1966848;72;21062;-79
2021/11/28 04:35:10;;;;;;;8.33;5.95;;;1.40;99.90;;;;;;1972992;72;21118;-81
2021/11/28 04:37:36;;;;;;;6.80;5.42;;;1.20;99.90;;;;;;1974006;73;21388;-79
2021/11/28 04:40:02;;;;;;;13.25;6.70;;;1.20;99.90;;;;;;1973359;72;21493;-79
2021/11/28 04:42:29;;;;;;;10.10;6.62;;;1.20;99.90;;;;;;1969190;72;21573;-81
2021/11/28 04:44:55;;;;;;;11.78;7.10;;;1.20;99.90;;;;;;1973967;73;21108;-79
2021/11/28 04:47:21;;;;;;;10.20;6.70;;;1.10;99.90;;;;;;1966790;72;21066;-81
2021/11/28 04:49:48;;;;;;;8.68;6.17;;;1.30;99.90;;;;;;1978143;72;21133;-80
2021/11/28 04:52:14;;;;;;;10.40;6.95;;;1.30;99.90;;;;;;1973955;72;21076;-78
2021/11/28 04:54:40;;;;;;;10.13;6.50;;;1.20;99.90;;;;;;1973962;73;21075;-80
2021/11/28 04:57:06;;;;;;;9.83;6.37;;;1.20;99.90;;;;;;1981421;72;21560;-79
2021/11/28 04:59:32;;;;;;;11.55;6.67;;;1.20;99.90;;;;;;1975876;72;21428;-80
2021/11/28 05:01:58;;;;;;;10.53;7.30;;;1.20;99.90;;;;;;1976962;72;21522;-80
2021/11/28 05:04:24;;;;;;;9.23;6.95;;;1.20;99.90;;;;;;1980221;72;21047;-80
2021/11/28 05:06:51;;;;;;;10.10;7.00;;;1.20;99.90;;;;;;1968206;72;21156;-80
2021/11/28 05:09:17;;;;;;;9.78;6.37;;;1.20;99.90;;;;;;1988486;72;21064;-79
2021/11/28 05:11:43;;;;;;;8.40;6.22;;;1.20;99.90;;;;;;1968608;72;21031;-81
2021/11/28 05:14:09;;;;;;;10.25;6.92;;;1.20;99.90;;;;;;1982037;72;21050;-80
2021/11/28 05:16:37;;;;;;;11.55;6.40;;;1.20;99.90;;;;;;1964850;72;21050;-81
2021/11/28 05:19:03;;;;;;;9.05;6.60;;;1.20;99.90;;;;;;1965823;72;21080;-81
2021/11/28 05:21:29;;;;;;;9.63;7.08;;;1.30;99.90;;;;;;1974964;72;21050;-81
2021/11/28 05:23:55;;;;;;;13.50;6.72;;;1.20;99.90;;;;;;1975219;72;21078;-80
2021/11/28 05:26:22;;;;;;;10.25;5.80;;;1.40;99.90;;;;;;1971604;72;21040;-79
2021/11/28 05:28:48;;;;;;;7.35;5.70;;;1.40;99.90;;;;;;1974344;72;21489;-81
2021/11/28 05:31:17;;;;;;;10.68;5.78;;;1.50;99.90;;;;;;1972220;72;21105;-80
2021/11/28 05:33:42;;;;;;;7.75;5.55;;;1.50;99.90;;;;;;1976475;72;21477;-81
2021/11/28 05:36:08;;;;;;;7.85;5.97;;;1.50;99.90;;;;;;1968132;72;21177;-79
2021/11/28 05:38:34;;;;;;;11.70;6.70;;;1.40;99.90;;;;;;1974919;72;21084;-82
2021/11/28 05:41:01;;;;;;;10.23;6.20;;;1.40;99.90;;;;;;1983979;72;21111;-79
2021/11/28 05:43:27;;;;;;;8.43;6.17;;;1.40;99.90;;;;;;1977307;72;21138;-80
2021/11/28 05:45:53;;;;;;;13.98;6.08;;;1.50;99.90;;;;;;1986062;72;21035;-80
2021/11/28 05:48:19;;;;;;;9.00;6.03;;;1.40;99.90;;;;;;1980802;72;21077;-79
2021/11/28 05:50:46;;;;;;;11.60;5.33;;;1.50;99.90;;;;;;1974995;72;21067;-81
2021/11/28 05:53:15;;;;;;;9.83;5.85;;;1.50;99.90;;;;;;1965135;72;21083;-80
2021/11/28 05:55:40;;;;;;;10.15;7.10;;;1.50;99.90;;;;;;1976799;72;21244;-79
2021/11/28 05:58:06;;;;;;;7.92;6.17;;;1.40;99.90;;;;;;1964580;72;21062;-79
2021/11/28 06:00:33;;;;;;;11.53;6.45;;;1.40;99.90;;;;;;1982890;72;21056;-80
2021/11/28 06:03:00;;;;;;;12.58;7.20;;;1.30;99.90;;;;;;1970996;72;21036;-81
2021/11/28 06:05:27;;;;;;;9.88;6.58;;;1.30;99.90;;;;;;1974353;72;21494;-80
2021/11/28 06:07:53;;;;;;;9.10;6.78;;;1.30;99.90;;;;;;1976968;72;21222;-80
2021/11/28 06:10:19;;;;;;;9.45;7.08;;;1.30;99.90;;;;;;1964874;72;21168;-80
2021/11/28 06:12:45;;;;;;;12.45;6.90;;;1.20;99.90;;;;;;1981889;72;21059;-82
2021/11/28 06:15:11;;;;;;;10.30;7.50;;;1.30;99.90;;;;;;1971994;72;21087;-81
2021/11/28 06:17:37;;;;;;;11.05;7.45;;;1.20;99.90;;;;;;1973067;72;21144;-80
2021/11/28 06:20:04;;;;;;;9.35;6.87;;;1.20;99.90;;;;;;1974381;72;21059;-80
2021/11/28 06:22:30;;;;;;;11.57;7.45;;;1.20;99.90;;;;;;1967398;72;21141;-81
2021/11/28 06:24:56;;;;;;;11.75;7.85;;;1.20;99.90;;;;;;1974045;72;21055;-82
2021/11/28 06:27:22;;;;;;;9.13;7.08;;;1.20;99.90;;;;;;1971033;72;21485;-81
2021/11/28 06:29:48;;;;;;;9.43;7.12;;;1.20;99.90;;;;;;1980783;72;21528;-81
2021/11/28 06:32:14;;;;;;;10.60;6.90;;;1.20;99.90;;;;;;1973872;72;21509;-82
2021/11/28 06:34:40;;;;;;;10.95;6.60;;;1.20;99.90;;;;;;1974670;72;21114;-80
2021/11/28 06:37:06;;;;;;;17.12;8.18;;;1.20;99.90;;;;;;1974499;73;21087;-80
2021/11/28 06:39:33;;;;;;;11.12;7.40;;;1.20;99.90;;;;;;1971266;72;21145;-80
2021/11/28 06:41:59;;;;;;;19.67;9.43;;;1.20;99.90;;;;;;1974428;72;21149;-80
2021/11/28 06:44:25;;;;;;;24.07;11.65;;;1.30;99.90;;;;;;1970347;72;21145;-80
2021/11/28 06:46:51;;;;;;;20.57;9.03;;;1.30;99.90;;;;;;1972580;72;21101;-81
2021/11/28 06:49:17;;;;;;;13.22;7.78;;;1.30;99.90;;;;;;1967838;72;21155;-81
2021/11/28 06:51:43;;;;;;;16.25;6.80;;;1.20;99.90;;;;;;1978969;72;21148;-81
2021/11/28 06:54:09;;;;;;;12.63;7.28;;;1.20;99.90;;;;;;1982889;72;21023;-83
2021/11/28 06:56:35;;;;;;;12.45;7.00;;;1.30;99.90;;;;;;1965344;72;21054;-79
2021/11/28 06:59:02;;;;;;;9.38;6.50;;;1.20;99.90;;;;;;1979588;72;21004;-79
2021/11/28 07:01:30;;;;;;;6.92;5.55;;;1.20;99.90;;;;;;1968654;72;21061;-80
2021/11/28 07:03:55;;;;;;;10.15;6.60;;;1.30;99.90;;;;;;1976315;72;21073;-78
2021/11/28 07:06:22;;;;;;;9.80;6.60;;;1.30;99.90;;;;;;1973932;73;21246;-76
2021/11/28 07:08:48;;;;;;;15.88;7.17;;;1.30;99.90;;;;;;1974046;73;21091;-79
2021/11/28 07:11:14;;;;;;;11.88;6.33;;;1.40;99.90;;;;;;1973925;73;21063;-79
2021/11/28 07:13:40;;;;;;;10.32;6.92;;;1.30;99.90;;;;;;1974177;72;21129;-78
2021/11/28 07:16:06;;;;;;;10.70;6.35;;;1.40;99.90;;;;;;1983239;72;21023;-79
2021/11/28 07:18:32;;;;;;;11.38;6.03;;;1.30;99.90;;;;;;1977142;72;21502;-79
2021/11/28 07:20:58;;;;;;;6.30;5.25;;;1.30;99.90;;;;;;1970319;72;21554;-79
2021/11/28 07:23:24;;;;;;;8.45;6.12;;;1.40;99.90;;;;;;1974150;73;21500;-79
2021/11/28 07:25:50;;;;;;;12.90;5.92;;;1.40;99.90;;;;;;1973119;72;21101;-78
2021/11/28 07:28:17;;;;;;;8.88;6.55;;;1.40;99.90;;;;;;1978057;72;21057;-79
2021/11/28 07:30:48;;;;;;;11.93;7.05;;;1.40;99.90;;;;;;1975220;72;21032;-83
2021/11/28 07:33:11;;;;;;;12.37;7.22;;;1.30;99.90;;;;;;1975917;72;21560;-79
2021/11/28 07:35:37;;;;;;;10.35;6.30;;;1.40;99.90;;;;;;1972464;72;21552;-75
2021/11/28 07:38:03;;;;;;;12.03;6.72;;;1.40;99.90;;;;;;1970837;72;21071;-79
2021/11/28 07:40:29;;;;;;;9.05;6.92;;;1.40;99.90;;;;;;1970482;72;21059;-79
2021/11/28 07:42:55;;;;;;;10.50;6.33;;;1.50;99.90;;;;;;1965675;72;21137;-81
2021/11/28 07:45:21;;;;;;;9.18;6.47;;;1.50;99.90;;;;;;1979921;72;21075;-80
2021/11/28 07:47:48;;;;;;;10.03;6.42;;;1.60;99.90;;;;;;1970259;72;21043;-83
2021/11/28 07:50:14;;;;;;;20.55;7.10;;;1.70;99.90;;;;;;1974011;73;21511;-79
2021/11/28 07:52:41;;;;;;;9.65;6.10;;;1.70;99.90;;;;;;1970044;72;21541;-79
2021/11/28 07:55:07;;;;;;;11.88;6.47;;;1.80;99.90;;;;;;1974052;73;21243;-78
2021/11/28 07:57:33;;;;;;;11.60;8.58;;;1.80;99.90;;;;;;1973762;72;21157;-79
2021/11/28 07:59:59;;;;;;;9.90;7.15;;;1.70;99.90;;;;;;1983049;72;21050;-79
2021/11/28 08:02:25;;;;;;;9.68;6.35;;;1.70;99.90;;;;;;1971262;72;21065;-79
2021/11/28 08:04:51;;;;;;;10.30;6.58;;;1.70;99.90;;;;;;1982302;72;21032;-79
2021/11/28 08:07:19;;;;;;;10.88;6.53;;;1.80;99.90;;;;;;1980230;72;21160;-79
2021/11/28 08:09:45;;;;;;;11.03;7.47;;;1.80;99.90;;;;;;1974595;72;21039;-80
2021/11/28 08:12:11;;;;;;;26.02;6.87;;;1.80;99.90;;;;;;1991047;72;21109;-81
2021/11/28 08:14:38;;;;;;;10.93;7.20;;;1.80;99.90;;;;;;1978396;72;21054;-79
2021/11/28 08:17:04;;;;;;;14.10;6.67;;;1.80;99.90;;;;;;1976426;72;21079;-79
2021/11/28 08:19:30;;;;;;;8.40;6.15;;;1.90;99.90;;;;;;1975878;72;21249;-80
2021/11/28 08:21:58;;;;;;;14.05;7.37;;;1.90;99.90;;;;;;1973971;72;21062;-79
2021/11/28 08:24:24;;;;;;;15.13;7.60;;;1.90;99.90;;;;;;1974307;72;21157;-79
2021/11/28 08:26:50;;;;;;;14.87;7.83;;;1.90;99.90;;;;;;1973190;72;21096;-79
2021/11/28 08:29:17;;;;;;;9.03;6.97;;;2.00;99.90;;;;;;1970998;72;21085;-80
2021/11/28 08:31:45;;;;;;;10.35;7.10;;;2.00;99.90;;;;;;1970675;72;21059;-80
2021/11/28 08:34:12;;;;;;;25.82;7.47;;;2.10;99.90;;;;;;1973869;73;21131;-80
2021/11/28 08:36:38;;;;;;;10.45;7.05;;;2.10;99.90;;;;;;1967679;72;21123;-79
2021/11/28 08:39:04;;;;;;;10.82;6.05;;;2.10;99.90;;;;;;1979616;72;21047;-81
2021/11/28 08:41:30;;;;;;;12.70;7.00;;;2.20;99.90;;;;;;1971074;72;21128;-80
2021/11/28 08:43:56;;;;;;;11.80;7.00;;;2.20;99.90;;;;;;1986232;72;21028;-79
2021/11/28 08:46:22;;;;;;;9.98;6.92;;;2.40;99.90;;;;;;1948637;72;21054;-80
2021/11/28 08:48:49;;;;;;;11.33;6.00;;;2.40;99.90;;;;;;1983401;72;21133;-80
2021/11/28 08:51:15;;;;;;;8.15;6.30;;;2.50;99.90;;;;;;1962987;72;21177;-81
2021/11/28 08:53:41;;;;;;;9.73;6.28;;;2.40;99.90;;;;;;1970751;72;21157;-83
2021/11/28 08:56:07;;;;;;;11.57;5.65;;;2.50;99.90;;;;;;1979334;72;21463;-83
2021/11/28 08:58:33;;;;;;;9.50;6.50;;;2.50;99.90;;;;;;1984420;72;21499;-82
2021/11/28 09:01:06;;;;;;;13.28;6.95;;;2.50;99.90;;;;;;1980088;72;21024;-82
2021/11/28 09:03:30;;;;;;;13.05;6.83;;;2.60;99.90;;;;;;1966620;72;21118;-78
2021/11/28 09:05:56;;;;;;;9.45;6.58;;;2.50;99.90;;;;;;1975735;72;21071;-76
2021/11/28 09:08:23;;;;;;;12.53;6.65;;;2.50;99.90;;;;;;1968899;72;21173;-79
2021/11/28 09:10:49;;;;;;;12.53;6.37;;;2.50;99.90;;;;;;1971480;72;21070;-80
2021/11/28 09:13:15;;;;;;;8.60;6.28;;;2.50;99.90;;;;;;1973806;72;21161;-79
2021/11/28 09:15:41;;;;;;;10.20;5.97;;;2.50;99.90;;;;;;1976045;72;21079;-80
2021/11/28 09:18:14;;;;;;;11.40;5.72;;;2.70;99.90;;;;;;1970663;72;21036;-82
2021/11/28 09:20:38;;;;;;;12.90;6.53;;;2.80;99.90;;;;;;1973201;72;21232;-78
2021/11/28 09:25:31;;;;;;;13.03;6.25;;;3.00;99.90;;;;;;1981413;72;21642;-78
2021/11/28 09:27:57;;;;;;;9.83;6.05;;;3.00;99.90;;;;;;1974005;73;21060;-77
2021/11/28 09:30:28;;;;;;;15.18;6.28;;;2.90;99.90;;;;;;1976375;72;21144;-76
2021/11/28 09:32:53;;;;;;;11.45;6.42;;;2.80;99.90;;;;;;1963667;72;21114;-74
2021/11/28 09:35:19;;;;;;;8.10;5.20;;;2.90;99.90;;;;;;1981129;72;21546;-77
2021/11/28 09:37:45;;;;;;;8.85;4.90;;;2.80;99.90;;;;;;1972789;72;21099;-81
2021/11/28 09:40:11;;;;;;;11.97;5.62;;;2.80;99.90;;;;;;1977967;72;21112;-77
2021/11/28 09:42:37;;;;;;;6.95;4.72;;;3.00;99.90;;;;;;1976452;72;21001;-81
2021/11/28 09:45:04;;;;;;;13.98;5.20;;;3.00;99.90;;;;;;1976055;72;21055;-82
2021/11/28 09:47:30;;;;;;;9.98;5.47;;;2.90;99.90;;;;;;1973945;73;21129;-84
2021/11/28 09:49:56;;;;;;;8.28;5.30;;;2.90;99.90;;;;;;1970242;72;21141;-79
2021/11/28 09:52:24;;;;;;;11.53;5.53;;;2.80;99.90;;;;;;1979871;72;21141;-81
2021/11/28 09:54:50;;;;;;;21.65;5.92;;;2.80;99.90;;;;;;1974000;73;21148;-82
2021/11/28 09:57:16;;;;;;;10.08;4.75;;;2.80;99.90;;;;;;1970276;72;21095;-82
2021/11/28 09:59:42;;;;;;;6.28;4.22;;;3.00;99.90;;;;;;1968200;72;21040;-81
2021/11/28 10:02:08;;;;;;;7.17;4.35;;;3.10;99.90;;;;;;1975631;72;21474;-81
2021/11/28 10:04:34;;;;;;;8.38;4.80;;;3.30;99.90;;;;;;1969967;72;21132;-81
2021/11/28 10:07:00;;;;;;;11.60;4.62;;;3.40;99.90;;;;;;1970583;72;21481;-81
2021/11/28 10:09:27;;;;;;;9.95;5.37;;;3.50;99.90;;;;;;1983232;72;21059;-81
2021/11/28 10:11:53;;;;;;;6.95;5.15;;;3.40;99.90;;;;;;1973884;72;21059;-82
2021/11/28 10:14:19;;;;;;;7.30;5.28;;;3.40;99.90;;;;;;1973256;72;21070;-80
2021/11/28 10:16:45;;;;;;;8.18;5.12;;;3.30;99.90;;;;;;1971939;72;21043;-80
2021/11/28 10:19:11;;;;;;;9.43;5.30;;;3.40;99.90;;;;;;1984480;72;21167;-81
2021/11/28 10:21:37;;;;;;;7.22;4.72;;;3.40;99.90;;;;;;1979409;72;21052;-80
2021/11/28 10:24:03;;;;;;;7.72;5.42;;;3.40;99.90;;;;;;1973840;72;21165;-82
2021/11/28 10:26:31;;;;;;;14.03;6.22;;;3.60;99.90;;;;;;1972855;72;21132;-80
2021/11/28 10:28:57;;;;;;;7.28;4.78;;;3.70;99.90;;;;;;1971463;72;21095;-82
2021/11/28 10:31:23;;;;;;;8.28;3.87;;;3.90;99.90;;;;;;1975495;72;21144;-80
2021/11/28 10:33:49;;;;;;;9.23;4.70;;;4.10;99.90;;;;;;1975138;72;21040;-82
2021/11/28 10:36:16;;;;;;;9.03;5.03;;;4.20;99.90;;;;;;1984422;72;21058;-82
2021/11/28 10:38:44;;;;;;;6.70;4.53;;;4.20;99.90;;;;;;1950815;72;21082;-80
2021/11/28 10:41:09;;;;;;;5.30;4.35;;;4.30;99.90;;;;;;1979803;72;21088;-82
2021/11/28 10:43:36;;;;;;;6.25;4.47;;;4.30;99.90;;;;;;1982941;72;21132;-82
2021/11/28 10:46:02;;;;;;;8.65;4.28;;;4.20;99.90;;;;;;1944539;72;21090;-82
2021/11/28 10:48:28;;;;;;;8.83;4.55;;;4.40;99.90;;;;;;1975240;72;21140;-81
2021/11/28 10:50:54;;;;;;;14.40;4.40;;;4.30;99.90;;;;;;1970115;72;21459;-83
2021/11/28 10:53:21;;;;;;;8.38;4.03;;;4.10;99.90;;;;;;1977691;72;21498;-82
2021/11/28 10:55:47;;;;;;;6.17;3.67;;;4.20;99.90;;;;;;1969580;72;21067;-83
2021/11/28 10:58:13;;;;;;;5.08;3.98;;;4.10;99.90;;;;;;1983794;72;21055;-83
2021/11/28 11:00:39;;;;;;;5.00;3.60;;;4.40;99.90;;;;;;1970757;72;21457;-83
2021/11/28 11:03:05;;;;;;;7.95;4.20;;;4.50;99.90;;;;;;1973899;73;21532;-82
2021/11/28 11:05:32;;;;;;;5.90;3.92;;;4.50;99.90;;;;;;1969911;72;21495;-79
2021/11/28 11:07:58;;;;;;;7.85;3.70;;;4.40;99.90;;;;;;1970468;72;21147;-83
2021/11/28 11:10:25;;;;;;;6.55;3.60;;;4.20;99.90;;;;;;1979245;72;21048;-82
2021/11/28 11:12:51;;;;;;;6.53;3.83;;;4.30;99.90;;;;;;1966060;72;21442;-83
2021/11/28 11:15:17;;;;;;;11.25;3.90;;;4.30;99.90;;;;;;1978429;72;21409;-82
2021/11/28 11:17:43;;;;;;;6.30;4.37;;;4.30;99.90;;;;;;1972164;72;21164;-81
2021/11/28 11:20:09;;;;;;;7.83;4.60;;;4.30;99.90;;;;;;1951767;73;21047;-80
2021/11/28 11:22:39;;;;;;;11.48;4.55;;;4.40;99.90;;;;;;1977337;72;21063;-80
2021/11/28 11:25:03;;;;;;;6.95;3.83;;;4.40;99.90;;;;;;1973643;72;21084;-83
2021/11/28 11:27:31;;;;;;;4.35;3.37;;;4.40;99.90;;;;;;1972183;72;21105;-80
2021/11/28 11:29:57;;;;;;;10.68;3.92;;;4.40;99.90;;;;;;1978544;72;21494;-83
2021/11/28 11:32:25;;;;;;;6.87;4.08;;;4.20;99.90;;;;;;1973227;72;21063;-82
2021/11/28 11:34:51;;;;;;;11.15;3.60;;;4.10;99.90;;;;;;1949691;72;21094;-81
2021/11/28 11:37:18;;;;;;;8.40;3.45;;;4.00;99.90;;;;;;1987557;72;21067;-81
2021/11/28 11:39:47;;;;;;;8.33;4.12;;;4.00;99.90;;;;;;1977058;72;21059;-84
2021/11/28 11:42:16;;;;;;;7.67;4.67;;;4.10;99.90;;;;;;1979238;72;21222;-81
2021/11/28 11:44:41;;;;;;;4.45;3.37;;;4.30;99.90;;;;;;1977067;72;21224;-81
2021/11/28 11:47:07;;;;;;;7.03;4.33;;;4.40;99.90;;;;;;1976796;71;21439;-81
2021/11/28 11:49:34;;;;;;;6.30;3.55;;;4.50;99.90;;;;;;1974053;73;21043;-80
2021/11/28 11:52:00;;;;;;;12.03;4.20;;;4.40;99.90;;;;;;1972186;72;21063;-81
2021/11/28 11:54:29;;;;;;;5.53;3.55;;;4.40;99.90;;;;;;1985585;72;21121;-81
2021/11/28 11:56:54;;;;;;;5.10;3.95;;;4.20;99.90;;;;;;1973934;73;21157;-81
2021/11/28 11:59:21;;;;;;;6.33;4.17;;;4.10;99.90;;;;;;1970277;72;21050;-80
2021/11/28 12:01:47;;;;;;;6.78;4.47;;;4.00;99.90;;;;;;1973341;72;21032;-80
2021/11/28 12:04:13;;;;;;;5.92;3.77;;;4.00;99.90;;;;;;1973948;72;21059;-81
2021/11/28 12:06:39;;;;;;;5.55;3.80;;;3.90;99.90;;;;;;1972360;72;21135;-81
2021/11/28 12:09:05;;;;;;;7.70;3.77;;;4.10;99.90;;;;;;1970528;72;21141;-81
2021/11/28 12:11:31;;;;;;;8.28;3.77;;;4.20;99.90;;;;;;1981620;72;21535;-81
2021/11/28 12:14:10;;;;;;;10.18;3.80;;;4.40;99.90;;;;;;1977126;72;21055;-83
2021/11/28 12:16:36;;;;;;;7.65;3.92;;;4.40;99.90;;;;;;1970733;72;21549;-80
2021/11/28 12:19:02;;;;;;;7.28;3.85;;;4.10;99.90;;;;;;1973990;73;21052;-83
2021/11/28 12:21:31;;;;;;;6.20;4.62;;;4.10;99.90;;;;;;1977906;72;21031;-75
2021/11/28 12:23:59;;;;;;;5.60;3.95;;;4.10;99.90;;;;;;1965723;72;21476;-75
2021/11/28 12:26:24;;;;;;;8.75;4.35;;;4.10;99.90;;;;;;1970381;72;21084;-80
2021/11/28 12:28:50;;;;;;;6.47;4.22;;;4.10;99.90;;;;;;1973925;72;21141;-83
2021/11/28 12:31:16;;;;;;;6.60;4.25;;;4.10;99.90;;;;;;1973870;72;21577;-84
2021/11/28 12:33:43;;;;;;;9.33;5.42;;;4.10;99.90;;;;;;1974050;72;21149;-83
2021/11/28 12:36:09;;;;;;;7.67;4.72;;;4.10;99.90;;;;;;1973861;72;21149;-85
2021/11/28 12:38:39;;;;;;;8.58;4.87;;;4.20;99.90;;;;;;1969577;72;21135;-84
2021/11/28 12:41:05;;;;;;;7.42;4.53;;;4.20;99.90;;;;;;1968593;72;21592;-82
2021/11/28 12:43:30;;;;;;;13.85;4.80;;;4.30;99.90;;;;;;1974569;72;21077;-82
2021/11/28 12:45:58;;;;;;;10.48;4.87;;;4.40;99.90;;;;;;1975064;73;21032;-79
2021/11/28 12:48:24;;;;;;;12.58;5.90;;;4.40;99.90;;;;;;1969416;72;21065;-78
2021/11/28 12:50:50;;;;;;;9.18;4.85;;;4.20;99.90;;;;;;1987885;72;21085;-83
2021/11/28 12:53:17;;;;;;;7.87;4.47;;;4.30;99.90;;;;;;1968087;72;21063;-82